createdAt,value
2023-11-12T00:00:26.000Z,6.13
2023-11-12T00:03:14.817Z,6.16
2023-11-12T00:05:43.342Z,6.14
2023-11-12T00:08:11.378Z,6.17
2023-11-12T00:10:40.717Z,6.22
2023-11-12T00:13:08.929Z,6.16
2023-11-12T00:15:38.901Z,6.12
2023-11-12T00:18:06.933Z,6.13
2023-11-12T00:20:35.767Z,6.03
2023-11-12T00:23:03.816Z,5.93
2023-11-12T00:25:32.086Z,5.87
2023-11-12T00:28:00.209Z,5.73
2023-11-12T00:30:28.558Z,5.62
2023-11-12T00:32:58.047Z,5.60
2023-11-12T00:35:26.490Z,5.62
2023-11-12T00:37:54.722Z,5.69
2023-11-12T00:40:23.757Z,5.72
2023-11-12T00:42:51.752Z,5.73
2023-11-12T00:45:20.056Z,5.74
2023-11-12T00:47:48.315Z,5.77
2023-11-12T00:50:19.129Z,5.77
2023-11-12T00:52:47.135Z,5.82
2023-11-12T00:55:15.803Z,5.81
2023-11-12T00:57:44.526Z,5.73
2023-11-12T01:00:14.876Z,5.68
2023-11-12T01:02:43.307Z,5.71
2023-11-12T01:05:12.170Z,5.69
2023-11-12T01:07:41.665Z,5.73
2023-11-12T01:10:10.632Z,5.64
2023-11-12T01:12:38.925Z,5.61
2023-11-12T01:15:07.980Z,5.67
2023-11-12T01:17:36.405Z,5.69
2023-11-12T01:20:07.814Z,5.73
2023-11-12T01:22:36.080Z,5.69
2023-11-12T01:25:06.441Z,5.63
2023-11-12T01:27:34.676Z,5.62
2023-11-12T01:30:04.338Z,5.62
2023-11-12T01:32:32.399Z,5.60
2023-11-12T01:35:01.085Z,5.62
2023-11-12T01:37:29.345Z,5.62
2023-11-12T01:39:57.702Z,5.59
2023-11-12T01:42:27.085Z,5.56
2023-11-12T01:44:55.337Z,5.53
2023-11-12T01:47:23.822Z,5.26
2023-11-12T01:49:52.410Z,5.20
2023-11-12T01:52:20.480Z,5.26
2023-11-12T01:54:48.791Z,5.37
2023-11-12T01:57:17.197Z,5.40
2023-11-12T01:59:47.144Z,5.19
2023-11-12T02:02:15.666Z,5.23
2023-11-12T02:04:44.194Z,5.28
2023-11-12T02:07:14.433Z,5.30
2023-11-12T02:09:42.792Z,5.32
2023-11-12T02:12:10.881Z,5.29
2023-11-12T02:14:39.313Z,5.32
2023-11-12T02:17:08.875Z,5.37
2023-11-12T02:19:37.238Z,5.47
2023-11-12T02:22:05.261Z,5.54
2023-11-12T02:24:35.231Z,5.53
2023-11-12T02:27:03.302Z,5.55
2023-11-12T02:29:32.129Z,5.56
2023-11-12T02:32:00.729Z,5.55
2023-11-12T02:34:29.027Z,5.61
2023-11-12T02:36:57.005Z,5.68
2023-11-12T02:39:25.289Z,5.74
2023-11-12T02:41:56.396Z,5.73
2023-11-12T02:44:24.735Z,5.73
2023-11-12T02:46:52.687Z,5.69
2023-11-12T02:49:39.068Z,5.71
2023-11-12T02:52:08.088Z,5.76
2023-11-12T02:54:36.673Z,5.81
2023-11-12T02:57:06.206Z,5.77
2023-11-12T02:59:34.991Z,5.83
2023-11-12T03:02:03.071Z,5.88
2023-11-12T03:04:34.472Z,5.93
2023-11-12T03:07:02.471Z,5.99
2023-11-12T03:09:31.634Z,6.00
2023-11-12T03:12:09.180Z,6.09
2023-11-12T03:14:39.236Z,6.20
2023-11-12T03:17:07.632Z,6.19
2023-11-12T03:19:36.680Z,6.22
2023-11-12T03:22:04.818Z,6.24
2023-11-12T03:24:33.508Z,6.20
2023-11-12T03:27:01.559Z,6.22
2023-11-12T03:29:29.875Z,6.24
2023-11-12T03:31:59.223Z,6.22
2023-11-12T03:34:27.580Z,6.23
2023-11-12T03:36:55.878Z,6.20
2023-11-12T03:39:24.610Z,6.30
2023-11-12T03:41:53.367Z,6.34
2023-11-12T03:44:21.645Z,6.35
2023-11-12T03:46:49.757Z,6.44
2023-11-12T03:49:19.557Z,6.48
2023-11-12T03:51:48.480Z,6.51
2023-11-12T03:54:17.848Z,6.52
2023-11-12T03:56:45.965Z,6.61
2023-11-12T03:59:14.320Z,6.70
2023-11-12T04:01:42.413Z,6.65
2023-11-12T04:04:10.767Z,6.73
2023-11-12T04:06:40.197Z,6.73
2023-11-12T04:09:10.044Z,6.77
2023-11-12T04:11:40.056Z,6.79
2023-11-12T04:14:08.733Z,6.83
2023-11-12T04:16:37.028Z,6.73
2023-11-12T04:19:08.874Z,6.78
2023-11-12T04:21:37.186Z,6.78
2023-11-12T04:24:08.384Z,6.76
2023-11-12T04:26:36.542Z,6.69
2023-11-12T04:29:08.594Z,6.67
2023-11-12T04:31:37.586Z,6.57
2023-11-12T04:34:06.457Z,6.56
2023-11-12T04:36:36.608Z,6.50
2023-11-12T04:39:08.919Z,6.47
2023-11-12T04:41:37.413Z,6.44
2023-11-12T04:44:06.689Z,6.44
2023-11-12T04:46:35.106Z,6.43
2023-11-12T04:49:04.002Z,6.42
2023-11-12T04:51:33.417Z,6.33
2023-11-12T04:54:01.941Z,6.33
2023-11-12T04:56:31.355Z,6.42
2023-11-12T04:58:59.686Z,6.41
2023-11-12T05:01:28.283Z,6.32
2023-11-12T05:03:56.686Z,6.32
2023-11-12T05:06:29.777Z,6.20
2023-11-12T05:08:58.424Z,6.24
2023-11-12T05:11:27.673Z,6.24
2023-11-12T05:13:57.860Z,6.17
2023-11-12T05:16:26.523Z,6.10
2023-11-12T05:18:55.292Z,6.14
2023-11-12T05:21:23.585Z,6.08
2023-11-12T05:23:51.899Z,6.06
2023-11-12T05:26:20.128Z,6.03
2023-11-12T05:28:48.516Z,5.94
2023-11-12T05:31:18.022Z,5.92
2023-11-12T05:33:46.392Z,5.90
2023-11-12T05:36:14.818Z,5.91
2023-11-12T05:38:43.629Z,5.83
2023-11-12T05:41:11.617Z,5.76
2023-11-12T05:43:40.116Z,5.70
2023-11-12T05:46:08.242Z,5.63
2023-11-12T05:48:38.346Z,5.59
2023-11-12T05:51:07.113Z,5.53
2023-11-12T05:53:35.632Z,5.46
2023-11-12T05:56:05.111Z,5.45
2023-11-12T05:58:33.428Z,5.45
2023-11-12T06:01:01.390Z,5.50
2023-11-12T06:03:30.975Z,5.55
2023-11-12T06:06:00.466Z,5.63
2023-11-12T06:08:28.966Z,5.70
2023-11-12T06:10:57.939Z,5.63
2023-11-12T06:13:26.454Z,5.61
2023-11-12T06:15:54.460Z,5.57
2023-11-12T06:18:22.803Z,5.60
2023-11-12T06:20:51.207Z,5.65
2023-11-12T06:23:20.884Z,5.72
2023-11-12T06:25:48.922Z,5.80
2023-11-12T06:28:18.097Z,5.84
2023-11-12T06:30:46.200Z,5.82
2023-11-12T06:33:14.626Z,5.89
2023-11-12T06:35:42.827Z,5.90
2023-11-12T06:38:11.072Z,5.96
2023-11-12T06:40:40.401Z,5.97
2023-11-12T06:43:08.700Z,5.87
2023-11-12T06:45:36.802Z,5.92
2023-11-12T06:48:05.311Z,5.89
2023-11-12T06:50:33.340Z,6.02
2023-11-12T06:53:01.602Z,6.15
2023-11-12T06:55:31.073Z,6.29
2023-11-12T06:58:00.767Z,6.36
2023-11-12T07:00:28.781Z,6.47
2023-11-12T07:02:57.488Z,6.54
2023-11-12T07:05:27.476Z,6.70
2023-11-12T07:07:56.050Z,6.82
2023-11-12T07:10:24.420Z,6.85
2023-11-12T07:12:52.694Z,6.90
2023-11-12T07:15:22.160Z,6.96
2023-11-12T07:17:51.003Z,7.04
2023-11-12T07:20:19.898Z,7.08
2023-11-12T07:22:48.474Z,7.14
2023-11-12T07:25:16.484Z,7.16
2023-11-12T07:27:45.890Z,7.29
2023-11-12T07:30:14.183Z,7.39
2023-11-12T07:32:44.205Z,7.44
2023-11-12T07:35:14.392Z,7.58
2023-11-12T07:37:43.393Z,7.73
2023-11-12T07:40:13.032Z,7.81
2023-11-12T07:42:42.079Z,7.87
2023-11-12T07:45:13.998Z,8.09
2023-11-12T07:47:45.599Z,8.16
2023-11-12T07:50:14.352Z,8.09
2023-11-12T07:52:43.085Z,8.11
2023-11-12T07:55:11.248Z,8.24
2023-11-12T07:57:39.564Z,8.32
2023-11-12T08:00:08.634Z,8.27
2023-11-12T08:02:38.275Z,8.35
2023-11-12T08:05:09.691Z,8.31
2023-11-12T08:07:38.120Z,8.33
2023-11-12T08:10:06.981Z,8.43
2023-11-12T08:12:35.525Z,8.45
2023-11-12T08:15:06.306Z,8.53
2023-11-12T08:17:34.690Z,8.60
2023-11-12T08:20:03.403Z,8.68
2023-11-12T08:22:33.059Z,8.68
2023-11-12T08:25:01.049Z,8.68
2023-11-12T08:27:30.256Z,8.81
2023-11-12T08:29:58.216Z,8.90
2023-11-12T08:32:26.680Z,8.87
2023-11-12T08:34:54.659Z,8.97
2023-11-12T08:37:22.999Z,8.96
2023-11-12T08:39:52.471Z,8.90
2023-11-12T08:42:20.978Z,8.87
2023-11-12T08:44:49.020Z,8.80
2023-11-12T08:47:17.375Z,8.83
2023-11-12T08:49:45.393Z,8.84
2023-11-12T08:52:16.173Z,8.98
2023-11-12T08:54:44.269Z,9.08
2023-11-12T08:57:14.036Z,9.25
2023-11-12T08:59:42.130Z,9.22
2023-11-12T09:02:10.610Z,9.39
2023-11-12T09:04:39.413Z,9.48
2023-11-12T09:07:08.461Z,9.60
2023-11-12T09:09:36.777Z,9.65
2023-11-12T09:12:05.331Z,9.66
2023-11-12T09:14:35.004Z,9.57
2023-11-12T09:17:03.660Z,9.70
2023-11-12T09:19:32.000Z,9.68
2023-11-12T09:22:00.245Z,9.73
2023-11-12T09:24:29.000Z,9.81
2023-11-12T09:26:57.565Z,9.78
2023-11-12T09:29:25.849Z,9.85
2023-11-12T09:31:55.831Z,9.89
2023-11-12T09:34:24.149Z,10.02
2023-11-12T09:36:53.069Z,9.94
2023-11-12T09:39:23.626Z,9.96
2023-11-12T09:41:53.682Z,10.03
2023-11-12T09:44:23.834Z,10.14
2023-11-12T09:47:00.672Z,10.15
2023-11-12T09:49:31.333Z,10.06
2023-11-12T09:51:59.591Z,10.00
2023-11-12T09:54:28.016Z,10.00
2023-11-12T09:57:06.365Z,10.12
2023-11-12T09:59:38.269Z,10.10
2023-11-12T10:02:07.758Z,10.05
2023-11-12T10:04:37.489Z,10.23
2023-11-12T10:07:06.650Z,10.28
2023-11-12T10:09:38.073Z,10.29
2023-11-12T10:12:07.100Z,10.40
2023-11-12T10:14:36.131Z,10.43
2023-11-12T10:17:08.456Z,10.46
2023-11-12T10:19:38.880Z,10.52
2023-11-12T10:22:08.368Z,10.61
2023-11-12T10:24:44.283Z,10.49
2023-11-12T10:27:15.462Z,10.48
2023-11-12T10:29:45.886Z,10.42
2023-11-12T10:32:26.010Z,10.64
2023-11-12T10:34:56.736Z,10.68
2023-11-12T10:37:25.185Z,10.57
2023-11-12T10:39:53.731Z,10.66
2023-11-12T10:42:24.836Z,10.77
2023-11-12T10:44:56.031Z,10.93
2023-11-12T10:47:25.151Z,10.88
2023-11-12T10:49:53.685Z,11.03
2023-11-12T10:52:24.255Z,11.04
2023-11-12T10:54:52.724Z,10.92
2023-11-12T10:57:21.783Z,10.69
2023-11-12T10:59:50.801Z,10.52
2023-11-12T11:02:19.970Z,10.40
2023-11-12T11:04:48.889Z,10.38
2023-11-12T11:07:17.707Z,10.31
2023-11-12T11:09:48.957Z,10.37
2023-11-12T11:12:18.089Z,10.31
2023-11-12T11:14:47.977Z,10.22
2023-11-12T11:17:31.485Z,10.11
2023-11-12T11:19:59.561Z,9.93
2023-11-12T11:22:28.909Z,9.81
2023-11-12T11:24:59.111Z,9.67
2023-11-12T11:27:29.622Z,9.70
2023-11-12T11:30:07.485Z,9.70
2023-11-12T11:32:36.259Z,9.60
2023-11-12T11:35:08.293Z,9.44
2023-11-12T11:37:55.333Z,9.59
2023-11-12T11:40:31.517Z,9.41
2023-11-12T11:43:19.627Z,9.40
2023-11-12T11:46:06.111Z,9.49
2023-11-12T11:48:34.704Z,9.75
2023-11-12T11:51:05.398Z,9.92
2023-11-12T11:53:34.245Z,10.04
2023-11-12T11:56:06.012Z,10.19
2023-11-12T11:58:41.650Z,10.13
2023-11-12T12:01:10.170Z,10.02
2023-11-12T12:03:38.489Z,10.05
2023-11-12T12:06:16.285Z,10.18
2023-11-12T12:08:51.461Z,10.21
2023-11-12T12:11:23.437Z,10.23
2023-11-12T12:13:58.220Z,10.28
2023-11-12T12:16:29.524Z,10.30
2023-11-12T12:18:58.155Z,10.22
2023-11-12T12:21:26.399Z,10.23
2023-11-12T12:23:55.350Z,10.26
2023-11-12T12:26:28.425Z,10.22
2023-11-12T12:28:57.238Z,10.31
2023-11-12T12:31:28.991Z,10.28
2023-11-12T12:34:01.232Z,10.31
2023-11-12T12:36:29.625Z,10.19
2023-11-12T12:38:58.875Z,10.21
2023-11-12T12:41:28.880Z,10.21
2023-11-12T12:43:57.835Z,10.08
2023-11-12T12:46:26.765Z,10.12
2023-11-12T12:48:56.466Z,10.07
2023-11-12T12:51:24.774Z,9.92
2023-11-12T12:53:54.018Z,9.98
2023-11-12T12:56:22.777Z,10.01
2023-11-12T12:58:56.904Z,10.02
2023-11-12T13:01:25.781Z,9.98
2023-11-12T13:03:54.186Z,10.10
2023-11-12T13:06:23.422Z,9.96
2023-11-12T13:08:52.297Z,10.03
2023-11-12T13:11:20.660Z,9.99
2023-11-12T13:13:50.607Z,9.65
2023-11-12T13:16:20.956Z,10.07
2023-11-12T13:18:49.672Z,9.99
2023-11-12T13:21:20.002Z,10.05
2023-11-12T13:23:48.265Z,9.98
2023-11-12T13:26:17.141Z,9.86
2023-11-12T13:28:45.667Z,9.86
2023-11-12T13:31:16.241Z,9.82
2023-11-12T13:33:49.644Z,9.80
2023-11-12T13:36:18.063Z,9.77
2023-11-12T13:38:46.550Z,9.75
2023-11-12T13:41:16.829Z,9.62
2023-11-12T13:43:45.492Z,9.67
2023-11-12T13:46:14.324Z,9.68
2023-11-12T13:48:42.982Z,9.64
2023-11-12T13:51:13.150Z,9.62
2023-11-12T13:53:42.765Z,9.52
2023-11-12T13:56:14.003Z,9.48
2023-11-12T13:58:44.122Z,9.39
2023-11-12T14:01:13.314Z,9.37
2023-11-12T14:03:42.262Z,9.36
2023-11-12T14:06:10.456Z,9.39
2023-11-12T14:08:42.821Z,9.23
2023-11-12T14:11:13.199Z,9.23
2023-11-12T14:13:44.962Z,9.13
2023-11-12T14:16:16.217Z,9.07
2023-11-12T14:18:45.910Z,8.99
2023-11-12T14:21:14.610Z,8.96
2023-11-12T14:23:44.787Z,8.92
2023-11-12T14:26:14.223Z,8.84
2023-11-12T14:28:42.586Z,8.78
2023-11-12T14:31:12.103Z,8.68
2023-11-12T14:33:42.720Z,8.57
2023-11-12T14:36:13.964Z,8.51
2023-11-12T14:38:42.278Z,8.50
2023-11-12T14:41:12.226Z,8.49
2023-11-12T14:43:41.260Z,8.54
2023-11-12T14:46:09.583Z,8.52
2023-11-12T14:48:38.950Z,8.54
2023-11-12T14:51:09.131Z,8.44
2023-11-12T14:53:37.395Z,8.33
2023-11-12T14:56:07.216Z,8.27
2023-11-12T14:58:38.217Z,8.16
2023-11-12T15:01:06.928Z,8.14
2023-11-12T15:03:35.431Z,8.10
2023-11-12T15:06:03.667Z,8.07
2023-11-12T15:08:34.514Z,8.10
2023-11-12T15:11:02.735Z,8.13
2023-11-12T15:13:33.829Z,8.10
2023-11-12T15:16:04.703Z,8.16
2023-11-12T15:18:33.137Z,8.17
2023-11-12T15:21:03.551Z,8.18
2023-11-12T15:23:32.969Z,8.15
2023-11-12T15:26:01.156Z,8.16
2023-11-12T15:28:30.189Z,8.25
2023-11-12T15:30:58.535Z,8.25
2023-11-12T15:33:28.323Z,8.29
2023-11-12T15:35:56.266Z,8.33
2023-11-12T15:38:24.855Z,8.34
2023-11-12T15:40:55.174Z,8.42
2023-11-12T15:43:23.417Z,8.44
2023-11-12T15:45:51.479Z,8.49
2023-11-12T15:48:19.797Z,8.48
2023-11-12T15:50:49.790Z,8.46
2023-11-12T15:53:21.787Z,8.48
2023-11-12T15:55:51.083Z,8.37
2023-11-12T15:58:20.536Z,8.36
2023-11-12T16:00:48.991Z,8.36
2023-11-12T16:03:19.018Z,8.32
2023-11-12T16:05:47.942Z,8.32
2023-11-12T16:08:17.863Z,8.30
2023-11-12T16:10:45.917Z,8.31
2023-11-12T16:13:14.614Z,8.33
2023-11-12T16:15:43.369Z,8.35
2023-11-12T16:18:13.125Z,8.36
2023-11-12T16:20:41.463Z,8.37
2023-11-12T16:23:09.906Z,8.37
2023-11-12T16:25:39.742Z,8.33
2023-11-12T16:28:08.156Z,8.29
2023-11-12T16:30:36.216Z,8.29
2023-11-12T16:33:05.517Z,8.21
2023-11-12T16:35:34.261Z,8.11
2023-11-12T16:38:05.525Z,7.97
2023-11-12T16:40:35.154Z,7.94
2023-11-12T16:43:05.139Z,7.79
2023-11-12T16:45:36.174Z,7.70
2023-11-12T16:48:04.954Z,7.61
2023-11-12T16:50:34.145Z,7.52
2023-11-12T16:53:04.088Z,7.40
2023-11-12T16:55:32.312Z,7.33
2023-11-12T16:58:00.877Z,7.22
2023-11-12T17:00:32.277Z,7.20
2023-11-12T17:03:01.293Z,7.12
2023-11-12T17:05:29.533Z,7.10
2023-11-12T17:07:59.053Z,7.11
2023-11-12T17:10:28.158Z,7.05
2023-11-12T17:12:56.873Z,6.98
2023-11-12T17:15:25.915Z,6.88
2023-11-12T17:17:56.091Z,6.86
2023-11-12T17:20:25.075Z,6.80
2023-11-12T17:22:53.621Z,6.78
2023-11-12T17:25:21.630Z,6.77
2023-11-12T17:27:51.529Z,6.70
2023-11-12T17:30:21.265Z,6.65
2023-11-12T17:32:49.629Z,6.59
2023-11-12T17:35:20.088Z,6.56
2023-11-12T17:37:48.719Z,6.56
2023-11-12T17:40:17.754Z,6.62
2023-11-12T17:42:46.230Z,6.60
2023-11-12T17:45:15.367Z,6.59
2023-11-12T17:47:43.931Z,6.56
2023-11-12T17:50:12.341Z,6.49
2023-11-12T17:52:42.126Z,6.54
2023-11-12T17:55:13.459Z,6.51
2023-11-12T17:57:44.535Z,6.57
2023-11-12T18:00:14.126Z,6.53
2023-11-12T18:02:43.088Z,6.50
2023-11-12T18:05:11.462Z,6.52
2023-11-12T18:07:41.791Z,6.55
2023-11-12T18:10:14.167Z,6.53
2023-11-12T18:12:45.552Z,6.47
2023-11-12T18:15:15.442Z,6.46
2023-11-12T18:17:44.824Z,6.47
2023-11-12T18:20:13.455Z,6.45
2023-11-12T18:22:42.960Z,6.35
2023-11-12T18:25:12.932Z,6.32
2023-11-12T18:27:43.047Z,6.27
2023-11-12T18:30:11.770Z,6.20
2023-11-12T18:32:40.589Z,6.19
2023-11-12T18:35:09.426Z,6.14
2023-11-12T18:37:37.876Z,6.12
2023-11-12T18:40:10.333Z,6.09
2023-11-12T18:42:40.366Z,6.05
2023-11-12T18:45:10.536Z,6.07
2023-11-12T18:47:39.094Z,6.04
2023-11-12T18:50:10.043Z,6.03
2023-11-12T18:52:40.942Z,5.72
2023-11-12T18:55:15.234Z,6.00
2023-11-12T18:57:46.593Z,6.03
2023-11-12T19:00:15.410Z,5.98
2023-11-12T19:02:43.958Z,6.00
2023-11-12T19:05:12.255Z,5.95
2023-11-12T19:07:45.013Z,5.92
2023-11-12T19:10:14.865Z,5.89
2023-11-12T19:12:45.252Z,5.86
2023-11-12T19:15:15.749Z,5.81
2023-11-12T19:17:46.453Z,5.72
2023-11-12T19:20:15.666Z,5.74
2023-11-12T19:22:45.520Z,5.79
2023-11-12T19:25:16.132Z,5.80
2023-11-12T19:27:45.987Z,5.76
2023-11-12T19:30:17.047Z,5.59
2023-11-12T19:32:48.318Z,5.58
2023-11-12T19:35:17.007Z,5.54
2023-11-12T19:37:47.987Z,5.49
2023-11-12T19:40:19.330Z,5.39
2023-11-12T19:42:50.355Z,5.36
2023-11-12T19:45:21.285Z,5.40
2023-11-12T19:47:53.455Z,5.33
2023-11-12T19:50:22.871Z,5.31
2023-11-12T19:52:51.422Z,5.24
2023-11-12T19:55:20.929Z,5.29
2023-11-12T19:57:54.469Z,5.21
2023-11-12T20:00:27.230Z,5.24
2023-11-12T20:02:56.000Z,5.24
2023-11-12T20:05:26.507Z,5.23
2023-11-12T20:07:55.778Z,5.20
2023-11-12T20:10:24.749Z,5.24
2023-11-12T20:12:53.033Z,5.31
2023-11-12T20:15:22.355Z,5.36
2023-11-12T20:17:53.515Z,5.42
2023-11-12T20:20:22.114Z,5.54
2023-11-12T20:22:50.705Z,5.60
2023-11-12T20:25:25.266Z,5.64
2023-11-12T20:27:54.275Z,5.69
2023-11-12T20:30:23.004Z,5.59
2023-11-12T20:32:51.576Z,5.64
2023-11-12T20:35:21.568Z,5.66
2023-11-12T20:37:50.553Z,5.70
2023-11-12T20:40:19.938Z,5.72
2023-11-12T20:42:51.286Z,5.81
2023-11-12T20:45:20.421Z,5.82
2023-11-12T20:47:53.540Z,5.93
2023-11-12T20:50:24.008Z,5.98
2023-11-12T20:52:53.245Z,6.04
2023-11-12T20:55:22.961Z,6.05
2023-11-12T20:57:53.882Z,6.11
2023-11-12T21:00:23.743Z,6.18
2023-11-12T21:02:53.246Z,6.17
2023-11-12T21:05:22.062Z,6.18
2023-11-12T21:07:52.127Z,6.22
2023-11-12T21:10:24.104Z,6.32
2023-11-12T21:12:52.968Z,6.30
2023-11-12T21:15:21.027Z,6.31
2023-11-12T21:17:49.377Z,6.26
2023-11-12T21:20:18.516Z,6.29
2023-11-12T21:22:46.920Z,6.27
2023-11-12T21:25:21.089Z,6.36
2023-11-12T21:27:49.913Z,6.44
2023-11-12T21:30:26.169Z,6.45
2023-11-12T21:32:58.568Z,6.52
2023-11-12T21:35:28.097Z,6.56
2023-11-12T21:37:58.430Z,6.56
2023-11-12T21:40:27.986Z,6.59
2023-11-12T21:42:57.204Z,6.64
2023-11-12T21:45:29.388Z,6.67
2023-11-12T21:47:57.974Z,6.73
2023-11-12T21:50:27.257Z,6.72
2023-11-12T21:52:58.578Z,6.73
2023-11-12T21:55:33.108Z,6.68
2023-11-12T21:58:02.233Z,6.72
2023-11-12T22:00:30.225Z,6.73
2023-11-12T22:03:00.170Z,6.78
2023-11-12T22:05:29.175Z,6.82
2023-11-12T22:07:57.722Z,6.81
2023-11-12T22:10:26.032Z,6.74
2023-11-12T22:12:56.883Z,6.72
2023-11-12T22:15:24.971Z,6.81
2023-11-12T22:17:53.744Z,6.75
2023-11-12T22:20:22.098Z,6.75
2023-11-12T22:22:51.833Z,6.81
2023-11-12T22:25:20.117Z,6.88
2023-11-12T22:27:49.028Z,6.77
2023-11-12T22:30:19.128Z,6.78
2023-11-12T22:32:49.889Z,6.84
2023-11-12T22:35:18.866Z,6.80
2023-11-12T22:37:48.604Z,6.88
2023-11-12T22:40:18.934Z,6.90
2023-11-12T22:42:47.845Z,6.83
2023-11-12T22:45:16.812Z,6.92
2023-11-12T22:47:48.312Z,7.05
2023-11-12T22:50:18.588Z,7.00
2023-11-12T22:52:47.099Z,7.08
2023-11-12T22:55:15.324Z,7.01
2023-11-12T22:57:45.239Z,7.01
2023-11-12T23:02:58.865Z,6.98
2023-11-12T23:05:26.904Z,7.04
2023-11-12T23:07:55.225Z,6.92
2023-11-12T23:10:23.473Z,6.90
2023-11-12T23:12:51.767Z,6.90
2023-11-12T23:15:20.824Z,6.99
2023-11-12T23:17:49.174Z,7.02
2023-11-12T23:20:19.155Z,7.07
2023-11-12T23:22:48.165Z,7.01
2023-11-12T23:25:17.143Z,7.01
2023-11-12T23:27:45.743Z,6.97
2023-11-12T23:30:14.781Z,6.97
2023-11-12T23:32:44.417Z,6.91
2023-11-12T23:35:12.923Z,6.97
2023-11-12T23:37:44.774Z,6.98
2023-11-12T23:40:15.809Z,6.86
2023-11-12T23:42:44.328Z,6.88
2023-11-12T23:45:13.308Z,6.94
2023-11-12T23:47:42.059Z,6.86
2023-11-12T23:50:11.053Z,6.96
2023-11-12T23:52:39.690Z,6.93
2023-11-12T23:55:10.510Z,6.97
2023-11-12T23:57:39.577Z,6.98
